createdAt,value
2022-10-26T00:01:31.326Z,9.90
2022-10-26T00:04:00.205Z,9.90
2022-10-26T00:06:29.948Z,9.80
2022-10-26T00:08:59.034Z,9.80
2022-10-26T00:11:27.761Z,9.90
2022-10-26T00:13:56.262Z,10.00
2022-10-26T00:16:28.544Z,10.00
2022-10-26T00:18:58.505Z,9.90
2022-10-26T00:21:28.277Z,10.00
2022-10-26T00:23:57.773Z,9.90
2022-10-26T00:26:26.417Z,9.90
2022-10-26T00:28:57.019Z,9.90
2022-10-26T00:31:26.295Z,9.90
2022-10-26T00:33:55.570Z,9.90
2022-10-26T00:36:27.371Z,9.90
2022-10-26T00:38:58.125Z,9.90
2022-10-26T00:41:30.701Z,9.80
2022-10-26T00:44:00.697Z,9.80
2022-10-26T00:46:35.767Z,9.90
2022-10-26T00:49:11.780Z,9.80
2022-10-26T00:51:47.630Z,9.70
2022-10-26T00:54:20.220Z,9.70
2022-10-26T00:56:53.218Z,9.70
2022-10-26T00:59:24.324Z,9.60
2022-10-26T01:01:54.234Z,9.60
2022-10-26T01:04:23.386Z,9.60
2022-10-26T01:06:54.488Z,9.50
2022-10-26T01:09:24.239Z,9.50
2022-10-26T01:11:52.861Z,9.50
2022-10-26T01:14:23.472Z,9.50
2022-10-26T01:17:10.180Z,9.50
2022-10-26T01:20:36.976Z,9.50
2022-10-26T01:23:17.762Z,9.50
2022-10-26T01:30:37.953Z,9.50
2022-10-26T01:33:31.242Z,9.50
2022-10-26T01:36:14.593Z,9.40
2022-10-26T01:38:56.997Z,9.40
2022-10-26T01:41:32.487Z,9.30
2022-10-26T01:44:08.414Z,9.30
2022-10-26T01:46:46.173Z,9.30
2022-10-26T01:49:19.312Z,9.30
2022-10-26T01:51:51.119Z,9.40
2022-10-26T01:54:20.131Z,9.30
2022-10-26T01:56:53.361Z,9.20
2022-10-26T01:59:37.493Z,9.20
2022-10-26T02:02:41.504Z,9.20
2022-10-26T02:05:32.824Z,9.10
2022-10-26T02:08:27.933Z,9.10
2022-10-26T02:11:19.188Z,9.20
2022-10-26T02:13:57.504Z,9.20
2022-10-26T02:16:37.466Z,9.10
2022-10-26T02:19:22.132Z,9.20
2022-10-26T02:21:59.109Z,9.30
2022-10-26T02:24:30.705Z,9.30
2022-10-26T02:27:04.303Z,9.40
2022-10-26T02:29:36.095Z,9.30
2022-10-26T02:32:08.186Z,9.20
2022-10-26T02:34:43.068Z,9.00
2022-10-26T02:37:13.596Z,9.00
2022-10-26T02:39:44.743Z,9.10
2022-10-26T02:42:16.857Z,9.00
2022-10-26T02:44:53.951Z,9.10
2022-10-26T02:47:23.204Z,9.20
2022-10-26T02:49:53.775Z,9.20
2022-10-26T02:52:33.487Z,9.10
2022-10-26T02:55:10.536Z,8.90
2022-10-26T02:57:43.084Z,9.00
2022-10-26T03:00:16.514Z,8.90
2022-10-26T03:02:53.216Z,8.90
2022-10-26T03:05:28.049Z,8.80
2022-10-26T03:07:58.815Z,8.80
2022-10-26T03:10:28.269Z,8.80
2022-10-26T03:12:57.277Z,8.90
2022-10-26T03:15:26.043Z,8.90
2022-10-26T03:17:54.813Z,8.90
2022-10-26T03:20:25.264Z,8.90
2022-10-26T03:22:54.459Z,8.90
2022-10-26T03:25:23.195Z,8.80
2022-10-26T03:27:59.476Z,8.80
2022-10-26T03:30:29.488Z,8.80
2022-10-26T03:32:58.592Z,8.90
2022-10-26T03:35:29.039Z,8.80
2022-10-26T03:37:57.964Z,8.80
2022-10-26T03:40:26.750Z,8.90
2022-10-26T03:42:55.552Z,8.80
2022-10-26T03:45:24.395Z,8.80
2022-10-26T03:47:53.242Z,8.80
2022-10-26T03:50:24.840Z,8.90
2022-10-26T03:52:55.057Z,9.10
2022-10-26T03:55:23.810Z,9.10
2022-10-26T03:57:52.514Z,9.10
2022-10-26T04:00:21.658Z,9.10
2022-10-26T04:02:57.871Z,9.00
2022-10-26T04:05:29.380Z,9.10
2022-10-26T04:08:03.105Z,9.10
2022-10-26T04:10:39.553Z,9.20
2022-10-26T04:13:08.369Z,9.20
2022-10-26T04:15:37.133Z,9.10
2022-10-26T04:18:06.046Z,9.00
2022-10-26T04:20:36.738Z,9.00
2022-10-26T04:23:09.185Z,9.00
2022-10-26T04:25:38.184Z,9.00
2022-10-26T04:28:08.856Z,9.00
2022-10-26T04:30:38.290Z,9.00
2022-10-26T04:33:08.259Z,9.00
2022-10-26T04:35:37.081Z,9.00
2022-10-26T04:38:08.832Z,9.00
2022-10-26T04:40:37.695Z,9.00
2022-10-26T04:43:06.634Z,9.00
2022-10-26T04:45:36.028Z,9.00
2022-10-26T04:48:07.866Z,9.00
2022-10-26T04:50:37.595Z,9.00
2022-10-26T04:53:09.683Z,8.90
2022-10-26T04:55:38.789Z,9.00
2022-10-26T04:58:08.113Z,9.00
2022-10-26T05:00:37.269Z,9.10
2022-10-26T05:03:08.920Z,9.10
2022-10-26T05:05:38.884Z,9.10
2022-10-26T05:08:09.192Z,9.10
2022-10-26T05:10:38.144Z,9.10
2022-10-26T05:13:07.169Z,9.00
2022-10-26T05:15:35.985Z,9.10
2022-10-26T05:18:08.352Z,9.10
2022-10-26T05:20:38.427Z,9.10
2022-10-26T05:23:13.925Z,9.10
2022-10-26T05:25:42.780Z,9.00
2022-10-26T05:28:14.343Z,9.10
2022-10-26T05:30:44.341Z,9.10
2022-10-26T05:33:14.915Z,9.10
2022-10-26T05:35:44.376Z,9.10
2022-10-26T05:38:17.498Z,9.10
2022-10-26T05:40:49.945Z,9.00
2022-10-26T05:43:21.300Z,9.00
2022-10-26T05:45:52.233Z,9.00
2022-10-26T05:48:21.236Z,9.00
2022-10-26T05:50:50.261Z,9.00
2022-10-26T05:53:21.042Z,8.90
2022-10-26T05:55:50.651Z,8.90
2022-10-26T05:58:20.371Z,8.90
2022-10-26T06:01:18.838Z,8.80
2022-10-26T06:04:14.086Z,8.80
2022-10-26T06:06:47.706Z,8.90
2022-10-26T06:09:18.956Z,9.00
2022-10-26T06:14:23.409Z,9.10
2022-10-26T06:17:09.796Z,9.10
2022-10-26T06:20:01.017Z,9.10
2022-10-26T06:22:48.988Z,9.00
2022-10-26T06:25:34.820Z,9.10
2022-10-26T06:28:22.963Z,9.20
2022-10-26T06:30:51.989Z,9.20
2022-10-26T06:33:29.585Z,9.20
2022-10-26T06:36:18.919Z,9.20
2022-10-26T06:38:50.910Z,9.20
2022-10-26T06:41:22.840Z,9.30
2022-10-26T06:43:53.106Z,9.30
2022-10-26T06:46:36.851Z,9.40
2022-10-26T06:49:19.594Z,9.30
2022-10-26T06:51:58.819Z,9.40
2022-10-26T06:54:45.013Z,9.40
2022-10-26T06:57:18.105Z,9.40
2022-10-26T06:59:52.260Z,9.60
2022-10-26T07:02:21.708Z,9.60
2022-10-26T07:04:50.957Z,9.70
2022-10-26T07:07:22.494Z,9.80
2022-10-26T07:09:51.554Z,9.90
2022-10-26T07:12:21.831Z,10.00
2022-10-26T07:14:50.782Z,10.10
2022-10-26T07:17:19.553Z,10.10
2022-10-26T07:19:48.572Z,10.20
2022-10-26T07:22:17.493Z,10.30
2022-10-26T07:24:50.127Z,10.30
2022-10-26T07:27:21.011Z,10.40
2022-10-26T07:29:49.971Z,10.50
2022-10-26T07:32:18.910Z,10.60
2022-10-26T07:34:47.745Z,10.60
2022-10-26T07:37:16.722Z,10.70
2022-10-26T07:39:45.729Z,10.80
2022-10-26T07:42:14.605Z,10.90
2022-10-26T07:44:45.102Z,10.90
2022-10-26T07:47:14.100Z,11.00
2022-10-26T07:49:42.925Z,11.20
2022-10-26T07:52:12.052Z,11.30
2022-10-26T07:54:41.018Z,11.40
2022-10-26T07:57:09.796Z,11.50
2022-10-26T07:59:38.656Z,11.60
2022-10-26T08:02:10.911Z,11.70
2022-10-26T08:04:40.034Z,11.70
2022-10-26T08:07:09.029Z,11.90
2022-10-26T08:09:37.877Z,12.00
2022-10-26T08:12:07.585Z,12.10
2022-10-26T08:14:36.629Z,12.20
2022-10-26T08:17:05.485Z,12.30
2022-10-26T08:19:36.014Z,12.40
2022-10-26T08:22:05.006Z,12.40
2022-10-26T08:24:33.977Z,12.50
2022-10-26T08:27:02.875Z,12.60
2022-10-26T08:29:31.771Z,12.70
2022-10-26T08:32:00.690Z,12.70
2022-10-26T08:34:29.691Z,12.70
2022-10-26T08:37:00.250Z,12.70
2022-10-26T13:21:04.233Z,18.70
2022-10-26T13:23:40.166Z,18.60
2022-10-26T13:26:13.467Z,18.60
2022-10-26T13:28:52.936Z,18.50
2022-10-26T13:31:57.137Z,18.40
2022-10-26T13:37:15.544Z,18.40
2022-10-26T13:39:49.256Z,18.30
2022-10-26T13:42:22.429Z,18.40
2022-10-26T13:44:58.542Z,18.40
2022-10-26T13:47:34.356Z,18.50
2022-10-26T13:50:13.094Z,18.50
2022-10-26T13:52:49.441Z,18.40
2022-10-26T13:55:26.611Z,18.40
2022-10-26T13:58:16.616Z,18.50
2022-10-26T14:01:16.703Z,18.50
2022-10-26T14:03:46.158Z,18.40
2022-10-26T14:06:25.351Z,18.50
2022-10-26T14:09:00.128Z,18.40
2022-10-26T14:11:37.238Z,18.30
2022-10-26T14:14:07.039Z,18.20
2022-10-26T14:16:37.010Z,18.30
2022-10-26T14:19:06.806Z,18.20
2022-10-26T14:21:43.223Z,18.20
2022-10-26T14:24:35.785Z,18.20
2022-10-26T14:27:20.123Z,18.20
2022-10-26T14:30:16.785Z,18.20
2022-10-26T14:32:38.555Z,18.10
2022-10-26T14:35:13.720Z,18.10
2022-10-26T14:37:51.099Z,18.00
2022-10-26T14:40:24.278Z,17.80
2022-10-26T14:42:57.881Z,17.80
2022-10-26T14:45:48.208Z,17.60
2022-10-26T14:48:30.819Z,17.50
2022-10-26T14:51:13.055Z,17.30
2022-10-26T14:53:50.562Z,17.30
2022-10-26T14:56:30.993Z,17.10
2022-10-26T14:59:13.882Z,17.00
2022-10-26T15:01:55.781Z,16.90
2022-10-26T15:04:57.949Z,17.00
2022-10-26T15:07:38.441Z,16.80
2022-10-26T15:10:23.178Z,16.90
2022-10-26T15:12:52.405Z,16.80
2022-10-26T15:15:25.454Z,16.70
2022-10-26T15:17:58.309Z,16.70
2022-10-26T15:20:30.561Z,16.70
2022-10-26T15:23:02.835Z,16.60
2022-10-26T15:25:35.280Z,16.60
2022-10-26T15:28:13.640Z,16.60
2022-10-26T15:31:05.780Z,16.50
2022-10-26T15:33:36.432Z,16.50
2022-10-26T15:36:16.871Z,16.40
2022-10-26T15:38:48.231Z,16.40
2022-10-26T15:41:26.887Z,16.30
2022-10-26T15:43:59.103Z,16.20
2022-10-26T15:46:35.346Z,16.20
2022-10-26T15:49:07.792Z,16.10
2022-10-26T15:51:37.151Z,16.00
2022-10-26T15:54:07.514Z,16.00
2022-10-26T15:56:39.317Z,16.00
2022-10-26T15:59:17.461Z,15.90
2022-10-26T16:01:48.264Z,15.90
2022-10-26T16:04:17.330Z,15.90
2022-10-26T16:06:46.776Z,15.80
2022-10-26T16:09:19.723Z,15.70
2022-10-26T16:11:48.751Z,15.40
2022-10-26T16:14:17.814Z,15.50
2022-10-26T16:16:48.208Z,15.40
2022-10-26T16:27:01.185Z,15.30
2022-10-26T16:29:31.316Z,15.40
2022-10-26T16:32:01.733Z,15.40
2022-10-26T16:34:30.886Z,15.30
2022-10-26T16:36:59.931Z,15.40
2022-10-26T16:51:58.374Z,15.30
2022-10-26T16:54:31.147Z,15.40
2022-10-26T16:57:00.519Z,15.40
2022-10-26T16:59:30.344Z,15.40
2022-10-26T17:01:59.545Z,15.40
2022-10-26T17:06:59.212Z,15.50
2022-10-26T17:09:28.239Z,15.60
2022-10-26T17:12:01.675Z,15.60
2022-10-26T17:14:31.024Z,15.60
2022-10-26T17:17:00.000Z,15.60
2022-10-26T17:19:30.308Z,15.60
2022-10-26T17:21:59.393Z,15.70
2022-10-26T17:24:28.300Z,15.70
2022-10-26T17:26:57.619Z,15.80
2022-10-26T17:29:26.591Z,15.80
2022-10-26T17:31:55.904Z,15.80
2022-10-26T17:34:25.335Z,15.80
2022-10-26T17:36:55.569Z,15.80
2022-10-26T17:39:24.565Z,15.80
2022-10-26T17:41:53.429Z,15.80
2022-10-26T17:44:22.184Z,15.80
2022-10-26T17:46:51.094Z,15.70
2022-10-26T17:49:23.570Z,15.60
2022-10-26T17:51:57.742Z,15.50
2022-10-26T17:54:27.615Z,15.50
2022-10-26T17:56:56.493Z,15.50
2022-10-26T17:59:25.375Z,15.50
2022-10-26T18:01:54.248Z,15.70
2022-10-26T18:04:23.584Z,15.70
2022-10-26T18:06:52.578Z,15.70
2022-10-26T18:09:22.985Z,15.70
2022-10-26T18:11:54.977Z,15.60
2022-10-26T18:14:25.430Z,15.50
2022-10-26T18:16:54.666Z,15.60
2022-10-26T18:19:24.080Z,15.60
2022-10-26T18:21:53.072Z,15.70
2022-10-26T18:24:23.488Z,15.70
2022-10-26T18:26:52.451Z,15.80
2022-10-26T18:29:21.719Z,15.70
2022-10-26T18:31:50.829Z,15.70
2022-10-26T18:34:20.481Z,15.70
2022-10-26T18:36:49.397Z,15.80
2022-10-26T18:39:18.324Z,15.70
2022-10-26T18:41:48.610Z,15.70
2022-10-26T18:44:19.199Z,15.60
2022-10-26T18:46:51.991Z,15.60
2022-10-26T18:49:21.217Z,15.50
2022-10-26T18:51:51.044Z,15.60
2022-10-26T18:54:19.883Z,15.60
2022-10-26T18:56:50.207Z,15.60
2022-10-26T18:59:19.111Z,15.50
2022-10-26T19:01:48.111Z,15.40
2022-10-26T19:04:17.674Z,15.30
2022-10-26T19:06:50.284Z,15.30
2022-10-26T19:09:20.957Z,15.20
2022-10-26T19:11:51.866Z,15.20
2022-10-26T19:14:20.900Z,15.20
2022-10-26T19:16:53.090Z,15.20
2022-10-26T19:19:22.590Z,15.10
2022-10-26T19:21:51.789Z,15.10
2022-10-26T19:24:23.928Z,15.10
2022-10-26T19:26:54.346Z,15.10
2022-10-26T19:29:23.313Z,15.00
2022-10-26T19:31:54.088Z,14.90
2022-10-26T19:34:23.353Z,14.80
2022-10-26T19:36:52.109Z,14.80
2022-10-26T19:39:21.023Z,14.70
2022-10-26T19:44:23.118Z,14.60
2022-10-26T19:46:54.127Z,14.50
2022-10-26T19:49:23.548Z,14.50
2022-10-26T19:51:52.441Z,14.50
2022-10-26T19:54:21.411Z,14.50
2022-10-26T19:56:50.225Z,14.50
2022-10-26T19:59:20.522Z,14.40
2022-10-26T20:01:49.470Z,14.40
2022-10-26T20:04:18.309Z,14.40
2022-10-26T20:06:47.061Z,14.30
2022-10-26T20:11:46.732Z,14.20
2022-10-26T20:14:15.933Z,14.10
2022-10-26T20:16:46.523Z,14.10
2022-10-26T20:19:15.500Z,14.10
2022-10-26T20:21:44.277Z,14.10
2022-10-26T20:24:13.428Z,14.00
2022-10-26T20:26:42.421Z,14.00
2022-10-26T20:29:12.226Z,14.00
2022-10-26T20:31:41.337Z,14.00
2022-10-26T20:34:11.768Z,14.00
2022-10-26T20:36:41.188Z,14.00
2022-10-26T20:39:11.263Z,14.00
2022-10-26T20:41:44.182Z,14.00
2022-10-26T20:44:24.019Z,14.00
2022-10-26T20:46:54.294Z,13.90
2022-10-26T20:49:25.574Z,13.80
2022-10-26T20:52:20.569Z,13.80
2022-10-26T20:55:01.169Z,13.80
2022-10-26T20:57:34.185Z,13.70
2022-10-26T21:00:09.111Z,13.70
2022-10-26T21:02:38.190Z,13.70
2022-10-26T21:05:09.303Z,13.60
2022-10-26T21:07:38.247Z,13.60
2022-10-26T21:10:08.247Z,13.60
2022-10-26T21:12:37.525Z,13.60
2022-10-26T21:15:08.366Z,13.50
2022-10-26T21:17:37.339Z,13.50
2022-10-26T21:20:09.089Z,13.50
2022-10-26T21:22:38.088Z,13.40
2022-10-26T21:25:08.139Z,13.30
2022-10-26T21:27:37.368Z,13.30
2022-10-26T21:30:07.791Z,13.30
2022-10-26T21:32:36.745Z,13.20
2022-10-26T21:35:07.901Z,13.10
2022-10-26T21:37:38.033Z,13.10
2022-10-26T21:40:08.802Z,13.10
2022-10-26T21:42:37.925Z,13.00
2022-10-26T21:45:09.000Z,13.10
2022-10-26T21:47:37.996Z,13.20
2022-10-26T21:50:09.832Z,13.10
2022-10-26T21:52:39.023Z,13.10
2022-10-26T21:55:08.775Z,13.10
2022-10-26T21:57:37.858Z,13.20
2022-10-26T22:00:08.506Z,13.10
2022-10-26T22:02:42.165Z,13.10
2022-10-26T22:07:41.762Z,12.80
2022-10-26T22:10:11.457Z,12.90
2022-10-26T22:12:40.578Z,12.90
2022-10-26T22:15:10.667Z,12.90
2022-10-26T22:17:40.784Z,12.80
2022-10-26T22:20:13.328Z,12.80
2022-10-26T22:22:42.268Z,12.80
2022-10-26T22:25:11.526Z,12.70
2022-10-26T22:27:40.720Z,12.70
2022-10-26T22:30:11.668Z,12.70
2022-10-26T22:32:40.778Z,12.70
2022-10-26T22:35:28.677Z,12.80
2022-10-26T22:37:58.735Z,12.80
2022-10-26T22:40:28.652Z,12.70
2022-10-26T22:42:57.730Z,12.60
2022-10-26T22:45:26.595Z,12.50
2022-10-26T22:47:55.549Z,12.60
2022-10-26T22:50:26.126Z,12.60
2022-10-26T22:52:55.499Z,12.60
2022-10-26T22:55:24.757Z,12.50
2022-10-26T22:57:55.295Z,12.50
2022-10-26T23:00:24.368Z,12.50
2022-10-26T23:02:53.135Z,12.40
2022-10-26T23:05:21.926Z,12.20
2022-10-26T23:08:00.671Z,12.30
2022-10-26T23:10:29.675Z,12.30
2022-10-26T23:12:58.490Z,12.30
2022-10-26T23:15:29.238Z,12.30
2022-10-26T23:17:58.027Z,12.30
2022-10-26T23:20:26.765Z,12.30
2022-10-26T23:22:55.663Z,12.40
2022-10-26T23:25:25.915Z,12.30
2022-10-26T23:27:54.705Z,12.30
2022-10-26T23:30:23.517Z,12.30
2022-10-26T23:32:52.645Z,12.30
2022-10-26T23:35:21.748Z,12.40
2022-10-26T23:37:50.572Z,12.40
2022-10-26T23:40:19.433Z,12.30
2022-10-26T23:42:49.968Z,12.20
2022-10-26T23:45:19.138Z,12.10
2022-10-26T23:47:48.297Z,12.10
2022-10-26T23:50:20.992Z,12.10
2022-10-26T23:52:51.616Z,12.10
2022-10-26T23:55:20.756Z,12.10
2022-10-26T23:57:51.249Z,12.00
